createdAt,value
2019-03-11T00:00:49.441Z,0.40
2019-03-11T00:04:55.275Z,0.50
2019-03-11T00:09:01.162Z,0.33
2019-03-11T00:13:06.059Z,0.37
2019-03-11T00:17:13.553Z,0.43
2019-03-11T00:21:21.321Z,0.30
2019-03-11T00:25:30.132Z,0.40
2019-03-11T00:29:37.543Z,0.20
2019-03-11T00:33:43.899Z,0.20
2019-03-11T00:37:50.002Z,0.23
2019-03-11T00:42:05.569Z,0.30
2019-03-11T00:46:11.767Z,0.30
2019-03-11T00:50:18.640Z,0.53
2019-03-11T00:54:24.472Z,0.23
2019-03-11T00:58:28.722Z,0.57
2019-03-11T01:02:32.963Z,0.40
2019-03-11T01:06:38.089Z,0.40
2019-03-11T01:10:43.318Z,0.33
2019-03-11T01:14:48.003Z,0.30
2019-03-11T01:18:52.226Z,0.30
2019-03-11T01:22:56.528Z,0.40
2019-03-11T01:27:00.681Z,0.10
2019-03-11T01:31:04.912Z,0.40
2019-03-11T01:35:10.855Z,0.40
2019-03-11T01:39:18.392Z,0.47
2019-03-11T01:43:22.917Z,0.30
2019-03-11T01:47:29.218Z,0.37
2019-03-11T01:51:37.221Z,0.37
2019-03-11T01:55:42.008Z,0.10
2019-03-11T01:59:48.940Z,0.20
2019-03-11T02:03:54.413Z,0.27
2019-03-11T02:08:00.438Z,0.33
2019-03-11T02:12:06.695Z,0.27
2019-03-11T02:16:10.882Z,0.50
2019-03-11T02:20:15.988Z,0.30
2019-03-11T02:24:21.373Z,0.30
2019-03-11T02:28:26.463Z,0.30
2019-03-11T02:32:42.385Z,0.30
2019-03-11T02:36:47.925Z,0.20
2019-03-11T02:40:52.143Z,0.30
2019-03-11T02:44:57.011Z,0.30
2019-03-11T02:49:02.046Z,0.20
2019-03-11T02:53:06.758Z,0.30
2019-03-11T02:57:12.356Z,0.30
2019-03-11T03:01:34.781Z,0.40
2019-03-11T03:05:44.687Z,0.30
2019-03-11T03:09:49.988Z,0.17
2019-03-11T03:13:54.343Z,0.40
2019-03-11T03:17:59.733Z,0.30
2019-03-11T03:22:03.938Z,0.30
2019-03-11T03:26:09.985Z,0.10
2019-03-11T03:30:16.490Z,0.27
2019-03-11T03:34:21.999Z,0.30
2019-03-11T03:38:31.020Z,0.27
2019-03-11T03:42:34.932Z,0.20
2019-03-11T03:46:42.236Z,0.20
2019-03-11T03:50:47.680Z,0.30
2019-03-11T03:54:52.301Z,0.10
2019-03-11T03:58:56.516Z,0.40
2019-03-11T04:03:00.895Z,0.20
2019-03-11T04:07:05.279Z,0.17
2019-03-11T04:11:09.532Z,0.50
2019-03-11T04:15:14.432Z,0.30
2019-03-11T04:19:22.685Z,0.40
2019-03-11T04:23:27.146Z,0.40
2019-03-11T04:27:31.371Z,0.20
2019-03-11T04:31:36.450Z,0.30
2019-03-11T04:35:40.667Z,0.53
2019-03-11T04:39:44.876Z,0.30
2019-03-11T04:43:49.098Z,0.40
2019-03-11T04:47:53.372Z,0.37
2019-03-11T04:51:57.639Z,0.40
2019-03-11T04:56:01.963Z,0.40
2019-03-11T05:00:06.912Z,0.60
2019-03-11T05:04:11.101Z,0.40
2019-03-11T05:08:15.523Z,0.30
2019-03-11T05:12:20.770Z,0.40
2019-03-11T05:16:25.423Z,0.40
2019-03-11T05:20:30.013Z,0.40
2019-03-11T05:24:34.533Z,0.60
2019-03-11T05:28:38.802Z,0.60
2019-03-11T05:32:44.091Z,0.37
2019-03-11T05:36:48.489Z,0.50
2019-03-11T05:40:55.203Z,0.30
2019-03-11T05:45:00.437Z,0.50
2019-03-11T05:49:05.979Z,0.50
2019-03-11T05:53:10.129Z,0.50
2019-03-11T05:57:15.128Z,0.60
2019-03-11T06:01:19.428Z,0.40
2019-03-11T06:05:25.764Z,0.50
2019-03-11T06:09:30.002Z,0.60
2019-03-11T06:13:36.206Z,0.60
2019-03-11T06:17:40.901Z,0.50
2019-03-11T06:21:54.091Z,0.40
2019-03-11T06:25:58.396Z,0.40
2019-03-11T06:30:02.547Z,0.30
2019-03-11T06:34:07.012Z,0.27
2019-03-11T06:38:11.191Z,0.50
2019-03-11T06:42:15.434Z,0.57
2019-03-11T06:46:19.604Z,0.43
2019-03-11T06:50:26.375Z,0.63
2019-03-11T06:54:31.931Z,0.60
2019-03-11T06:58:38.448Z,0.70
2019-03-11T07:02:43.652Z,0.40
2019-03-11T07:06:48.630Z,0.50
2019-03-11T07:10:52.925Z,0.50
2019-03-11T07:14:58.193Z,0.63
2019-03-11T07:19:03.307Z,0.50
2019-03-11T07:23:08.137Z,0.60
2019-03-11T07:27:12.278Z,0.40
2019-03-11T07:31:17.955Z,0.50
2019-03-11T07:35:22.450Z,0.50
2019-03-11T07:39:27.117Z,0.60
2019-03-11T07:43:31.357Z,0.60
2019-03-11T07:47:37.518Z,0.60
2019-03-11T07:51:43.134Z,0.50
2019-03-11T07:55:48.803Z,0.60
2019-03-11T07:59:53.349Z,0.53
2019-03-11T08:03:58.079Z,0.60
2019-03-11T08:08:02.363Z,0.70
2019-03-11T08:12:06.690Z,0.47
2019-03-11T08:16:11.281Z,0.50
2019-03-11T08:20:15.601Z,0.67
2019-03-11T08:24:19.810Z,0.60
2019-03-11T08:28:25.556Z,0.40
2019-03-11T08:32:31.244Z,0.50
2019-03-11T08:36:36.830Z,0.50
2019-03-11T08:40:42.960Z,0.50
2019-03-11T08:44:46.976Z,0.53
2019-03-11T08:48:51.177Z,0.60
2019-03-11T08:52:55.391Z,0.50
2019-03-11T08:56:59.552Z,0.50
2019-03-11T09:01:03.819Z,0.43
2019-03-11T09:05:09.226Z,0.53
2019-03-11T09:09:14.528Z,0.80
2019-03-11T09:13:19.371Z,0.40
2019-03-11T09:17:24.208Z,0.80
2019-03-11T09:21:30.923Z,0.57
2019-03-11T09:25:37.151Z,0.70
2019-03-11T09:29:41.705Z,0.60
2019-03-11T09:33:46.220Z,0.53
2019-03-11T09:37:50.399Z,0.60
2019-03-11T09:41:54.648Z,0.67
2019-03-11T09:45:58.833Z,0.77
2019-03-11T09:50:03.032Z,0.77
2019-03-11T09:54:07.235Z,0.53
2019-03-11T09:58:11.416Z,0.57
2019-03-11T10:02:15.702Z,0.47
2019-03-11T10:06:19.942Z,0.70
2019-03-11T10:10:24.488Z,0.77
2019-03-11T10:14:28.719Z,0.70
2019-03-11T10:18:32.928Z,0.70
2019-03-11T10:22:38.405Z,0.53
2019-03-11T10:26:42.641Z,0.60
2019-03-11T10:30:47.695Z,0.60
2019-03-11T10:34:53.001Z,0.63
2019-03-11T10:38:57.234Z,0.60
2019-03-11T10:43:02.794Z,0.70
2019-03-11T10:47:08.495Z,0.77
2019-03-11T10:51:13.256Z,1.03
2019-03-11T10:55:20.337Z,0.60
2019-03-11T10:59:26.538Z,0.60
2019-03-11T11:03:31.210Z,0.80
2019-03-11T11:07:36.060Z,0.90
2019-03-11T11:11:40.364Z,0.40
2019-03-11T11:15:44.610Z,0.70
2019-03-11T11:19:49.032Z,0.53
2019-03-11T11:23:53.320Z,0.60
2019-03-11T11:27:57.615Z,0.73
2019-03-11T11:32:01.832Z,0.60
2019-03-11T11:36:06.057Z,0.47
2019-03-11T11:40:12.845Z,0.70
2019-03-11T11:44:17.047Z,0.60
2019-03-11T11:48:21.269Z,0.60
2019-03-11T11:52:25.497Z,0.37
2019-03-11T11:56:29.698Z,0.20
2019-03-11T12:00:34.615Z,0.20
2019-03-11T12:04:38.862Z,0.20
2019-03-11T12:08:43.043Z,0.20
2019-03-11T12:12:47.377Z,0.50
2019-03-11T12:16:51.580Z,0.50
2019-03-11T12:20:55.895Z,0.40
2019-03-11T12:25:00.822Z,0.60
2019-03-11T12:29:05.879Z,0.50
2019-03-11T12:33:10.762Z,0.40
2019-03-11T12:37:15.119Z,0.60
2019-03-11T12:41:19.314Z,0.40
2019-03-11T12:45:23.602Z,0.20
2019-03-11T12:49:30.263Z,0.13
2019-03-11T12:53:36.188Z,0.20
2019-03-11T12:57:40.983Z,0.17
2019-03-11T13:01:45.499Z,0.10
2019-03-11T13:05:49.930Z,0.10
2019-03-11T13:09:54.139Z,0.07
2019-03-11T13:13:58.331Z,0.20
2019-03-11T13:18:33.166Z,0.20
2019-03-11T13:22:37.483Z,0.30
2019-03-11T13:26:41.697Z,0.20
2019-03-11T13:30:45.865Z,0.30
2019-03-11T13:34:50.078Z,0.40
2019-03-11T13:38:54.400Z,0.50
2019-03-11T13:42:58.632Z,0.40
2019-03-11T13:47:02.843Z,0.40
2019-03-11T13:51:08.583Z,0.40
2019-03-11T13:55:14.586Z,0.50
2019-03-11T13:59:19.669Z,0.53
2019-03-11T14:03:23.996Z,0.60
2019-03-11T14:07:28.197Z,0.40
2019-03-11T14:11:32.414Z,0.60
2019-03-11T14:15:37.711Z,0.40
2019-03-11T14:19:41.952Z,0.50
2019-03-11T14:23:47.529Z,0.40
2019-03-11T14:27:51.642Z,0.60
2019-03-11T14:31:55.903Z,0.33
2019-03-11T14:36:00.191Z,0.50
2019-03-11T14:40:05.201Z,0.50
2019-03-11T14:44:10.666Z,0.60
2019-03-11T14:48:16.899Z,0.50
2019-03-11T14:52:30.754Z,0.40
2019-03-11T14:56:35.359Z,0.60
2019-03-11T15:00:40.003Z,0.50
2019-03-11T15:04:45.107Z,0.40
2019-03-11T15:08:49.277Z,0.50
2019-03-11T15:12:55.424Z,0.40
2019-03-11T15:17:00.457Z,0.47
2019-03-11T15:21:04.723Z,0.33
2019-03-11T15:25:11.263Z,0.40
2019-03-11T15:29:15.877Z,0.50
2019-03-11T15:33:20.450Z,0.40
2019-03-11T15:37:24.699Z,0.60
2019-03-11T15:41:31.213Z,0.50
2019-03-11T15:45:38.868Z,0.37
2019-03-11T15:49:43.128Z,0.40
2019-03-11T15:53:48.973Z,0.30
2019-03-11T15:57:53.143Z,0.30
2019-03-11T16:01:59.858Z,0.57
2019-03-11T16:06:09.039Z,0.37
2019-03-11T16:10:17.065Z,0.20
2019-03-11T16:14:22.652Z,0.50
2019-03-11T16:18:27.522Z,0.50
2019-03-11T16:22:33.088Z,0.40
2019-03-11T16:26:41.503Z,0.40
2019-03-11T16:30:47.182Z,0.43
2019-03-11T16:34:53.877Z,0.53
2019-03-11T16:38:58.188Z,0.40
2019-03-11T16:43:20.696Z,0.47
2019-03-11T16:47:28.349Z,0.40
2019-03-11T16:51:34.082Z,0.40
2019-03-11T16:55:40.701Z,0.70
2019-03-11T16:59:45.246Z,0.30
2019-03-11T17:03:54.372Z,0.40
2019-03-11T17:08:00.240Z,0.33
2019-03-11T17:12:06.788Z,0.63
2019-03-11T17:16:10.959Z,0.27
2019-03-11T17:20:18.424Z,0.40
2019-03-11T17:24:22.640Z,0.73
2019-03-11T17:28:27.515Z,0.70
2019-03-11T17:32:33.534Z,0.40
2019-03-11T17:36:37.695Z,0.60
2019-03-11T17:40:42.005Z,0.47
2019-03-11T17:44:48.832Z,0.40
2019-03-11T17:48:53.661Z,0.40
2019-03-11T17:53:00.447Z,0.40
2019-03-11T17:57:07.026Z,0.40
2019-03-11T18:01:13.483Z,0.27
2019-03-11T18:05:24.850Z,0.40
2019-03-11T18:09:51.338Z,0.40
2019-03-11T18:14:04.556Z,0.67
2019-03-11T18:18:09.752Z,0.43
2019-03-11T18:22:15.849Z,0.60
2019-03-11T18:26:21.732Z,0.60
2019-03-11T18:30:27.770Z,0.60
2019-03-11T18:34:34.920Z,0.50
2019-03-11T18:38:42.941Z,0.50
2019-03-11T18:42:47.233Z,0.50
2019-03-11T18:46:53.903Z,0.70
2019-03-11T18:51:10.445Z,0.90
2019-03-11T18:55:07.948Z,0.60
2019-03-11T18:59:12.110Z,0.40
2019-03-11T19:03:18.807Z,0.50
2019-03-11T19:07:24.230Z,0.50
2019-03-11T19:11:30.285Z,0.50
2019-03-11T19:15:34.775Z,0.60
2019-03-11T19:19:45.970Z,0.50
2019-03-11T19:23:46.639Z,0.50
2019-03-11T19:27:55.316Z,0.60
2019-03-11T19:32:04.198Z,0.40
2019-03-11T19:36:24.457Z,0.70
2019-03-11T19:40:28.939Z,0.70
2019-03-11T19:49:22.211Z,0.80
2019-03-11T19:53:29.749Z,1.00
2019-03-11T19:57:35.132Z,0.93
2019-03-11T20:01:39.353Z,1.20
2019-03-11T20:05:47.344Z,1.10
2019-03-11T20:09:59.034Z,1.00
2019-03-11T20:14:03.719Z,1.27
2019-03-11T20:18:08.085Z,1.00
2019-03-11T20:22:17.500Z,0.80
2019-03-11T20:26:21.991Z,1.00
2019-03-11T20:30:28.927Z,1.10
2019-03-11T20:34:33.838Z,1.20
2019-03-11T20:38:42.645Z,0.93
2019-03-11T20:42:48.450Z,1.00
2019-03-11T20:46:53.327Z,0.90
2019-03-11T20:50:58.935Z,0.97
2019-03-11T20:55:06.015Z,1.00
2019-03-11T20:59:11.578Z,1.00
2019-03-11T21:03:17.316Z,0.90
2019-03-11T21:07:23.442Z,1.10
2019-03-11T21:11:28.869Z,0.70
2019-03-11T21:15:35.319Z,0.80
2019-03-11T21:19:40.690Z,0.90
2019-03-11T21:23:47.010Z,0.90
2019-03-11T21:27:55.303Z,1.30
2019-03-11T21:32:00.948Z,1.13
2019-03-11T21:36:08.753Z,1.10
2019-03-11T21:40:15.779Z,1.10
2019-03-11T21:44:23.031Z,1.13
2019-03-11T21:48:27.388Z,1.17
2019-03-11T21:52:33.717Z,1.53
2019-03-11T21:56:38.615Z,1.27
2019-03-11T22:00:56.224Z,1.30
2019-03-11T22:05:02.875Z,1.40
2019-03-11T22:09:09.591Z,1.40
2019-03-11T22:13:13.740Z,1.20
2019-03-11T22:17:18.036Z,1.47
2019-03-11T22:21:24.793Z,1.50
2019-03-11T22:25:30.543Z,1.30
2019-03-11T22:29:34.810Z,1.30
2019-03-11T22:33:40.883Z,1.33
2019-03-11T22:37:45.830Z,1.10
2019-03-11T22:41:52.897Z,1.40
2019-03-11T22:45:59.491Z,1.20
2019-03-11T22:50:05.007Z,1.33
2019-03-11T22:54:10.828Z,1.47
2019-03-11T22:58:16.960Z,1.33
2019-03-11T23:02:21.371Z,1.27
2019-03-11T23:06:25.579Z,1.30
2019-03-11T23:10:32.335Z,1.57
2019-03-11T23:14:38.245Z,1.47
2019-03-11T23:18:45.236Z,1.30
2019-03-11T23:22:50.735Z,1.50
2019-03-11T23:26:55.072Z,1.47
2019-03-11T23:30:59.604Z,1.30
2019-03-11T23:35:03.919Z,1.50
2019-03-11T23:39:08.562Z,1.10
2019-03-11T23:43:12.780Z,1.43
2019-03-11T23:47:17.966Z,1.40
2019-03-11T23:51:22.274Z,1.60
2019-03-11T23:55:26.534Z,1.40
2019-03-11T23:59:31.847Z,1.83
